sensor_id;sensor_type;location;lat;lon;timestamp;pressure;altitude;pressure_sealevel;temperature;humidity
12969;BME280;6549;53.128;8.182;2022-08-19T06:08:05;101078.66;;;17.35;100.00
12969;BME280;6549;53.128;8.182;2022-08-19T06:11:33;101077.88;;;17.58;100.00
12969;BME280;6549;53.128;8.182;2022-08-19T06:14:34;101077.84;;;18.01;100.00
12969;BME280;6549;53.128;8.182;2022-08-19T06:17:35;101074.47;;;18.46;100.00
12969;BME280;6549;53.128;8.182;2022-08-19T06:20:36;101073.44;;;18.75;100.00
12969;BME280;6549;53.128;8.182;2022-08-19T06:23:36;101073.88;;;19.06;100.00
12969;BME280;6549;53.128;8.182;2022-08-19T06:26:40;101074.72;;;19.36;100.00
12969;BME280;6549;53.128;8.182;2022-08-19T06:29:40;101090.38;;;19.62;100.00
12969;BME280;6549;53.128;8.182;2022-08-19T06:32:42;101092.00;;;19.76;100.00
12969;BME280;6549;53.128;8.182;2022-08-19T06:35:42;101089.34;;;19.85;100.00
12969;BME280;6549;53.128;8.182;2022-08-19T06:38:43;101083.63;;;19.76;100.00
12969;BME280;6549;53.128;8.182;2022-08-19T06:41:47;101089.41;;;19.97;100.00
12969;BME280;6549;53.128;8.182;2022-08-19T06:44:48;101091.22;;;20.04;100.00
12969;BME280;6549;53.128;8.182;2022-08-19T06:47:49;101098.44;;;20.30;100.00
12969;BME280;6549;53.128;8.182;2022-08-19T06:50:49;101096.22;;;20.63;100.00
12969;BME280;6549;53.128;8.182;2022-08-19T06:53:53;101098.69;;;20.86;100.00
12969;BME280;6549;53.128;8.182;2022-08-19T06:56:59;101097.34;;;21.03;100.00
12969;BME280;6549;53.128;8.182;2022-08-19T07:00:05;101104.81;;;21.32;100.00
12969;BME280;6549;53.128;8.182;2022-08-19T07:03:06;101101.84;;;21.48;100.00
12969;BME280;6549;53.128;8.182;2022-08-19T07:06:10;101106.31;;;21.58;100.00
12969;BME280;6549;53.128;8.182;2022-08-19T07:09:13;101112.56;;;21.62;100.00
12969;BME280;6549;53.128;8.182;2022-08-19T07:12:15;101114.50;;;21.74;100.00
12969;BME280;6549;53.128;8.182;2022-08-19T07:15:15;101114.13;;;21.63;100.00
12969;BME280;6549;53.128;8.182;2022-08-19T07:18:18;101116.47;;;21.86;100.00
12969;BME280;6549;53.128;8.182;2022-08-19T07:21:23;101116.75;;;22.23;100.00
12969;BME280;6549;53.128;8.182;2022-08-19T07:24:26;101118.06;;;22.31;100.00
12969;BME280;6549;53.128;8.182;2022-08-19T07:27:27;101122.63;;;22.68;100.00
12969;BME280;6549;53.128;8.182;2022-08-19T07:30:27;101121.75;;;22.80;100.00
12969;BME280;6549;53.128;8.182;2022-08-19T07:33:27;101123.63;;;22.74;100.00
12969;BME280;6549;53.128;8.182;2022-08-19T07:36:30;101124.91;;;22.82;100.00
12969;BME280;6549;53.128;8.182;2022-08-19T07:39:35;101136.38;;;22.75;100.00
12969;BME280;6549;53.128;8.182;2022-08-19T07:42:35;101134.88;;;22.93;100.00
12969;BME280;6549;53.128;8.182;2022-08-19T07:58:19;101156.19;;;22.59;100.00
12969;BME280;6549;53.128;8.182;2022-08-19T08:01:23;101168.13;;;22.72;100.00
12969;BME280;6549;53.128;8.182;2022-08-19T08:04:24;101162.13;;;23.41;100.00
12969;BME280;6549;53.128;8.182;2022-08-19T08:07:43;101161.16;;;24.21;100.00
12969;BME280;6549;53.128;8.182;2022-08-19T08:11:03;101166.41;;;24.55;100.00
12969;BME280;6549;53.128;8.182;2022-08-19T08:14:05;101164.84;;;24.54;100.00
12969;BME280;6549;53.128;8.182;2022-08-19T08:17:05;101169.94;;;24.74;100.00
12969;BME280;6549;53.128;8.182;2022-08-19T08:20:06;101164.41;;;24.28;100.00
12969;BME280;6549;53.128;8.182;2022-08-19T08:23:07;101168.09;;;24.52;100.00
12969;BME280;6549;53.128;8.182;2022-08-19T08:26:23;101177.03;;;24.05;100.00
12969;BME280;6549;53.128;8.182;2022-08-19T08:29:24;101172.44;;;22.95;100.00
12969;BME280;6549;53.128;8.182;2022-08-19T08:32:25;101180.56;;;22.71;100.00
12969;BME280;6549;53.128;8.182;2022-08-19T08:35:26;101185.16;;;22.87;100.00
12969;BME280;6549;53.128;8.182;2022-08-19T08:38:27;101183.78;;;22.92;100.00
12969;BME280;6549;53.128;8.182;2022-08-19T08:44:45;101184.34;;;23.57;100.00
12969;BME280;6549;53.128;8.182;2022-08-19T08:47:51;101190.88;;;23.54;100.00
12969;BME280;6549;53.128;8.182;2022-08-19T08:50:54;101187.78;;;22.81;100.00
12969;BME280;6549;53.128;8.182;2022-08-19T08:53:56;101185.50;;;22.98;100.00
12969;BME280;6549;53.128;8.182;2022-08-19T08:56:57;101190.13;;;22.83;100.00
12969;BME280;6549;53.128;8.182;2022-08-19T09:00:00;101189.53;;;22.66;100.00
12969;BME280;6549;53.128;8.182;2022-08-19T09:03:03;101189.56;;;22.97;100.00
12969;BME280;6549;53.128;8.182;2022-08-19T09:06:21;101186.72;;;23.37;100.00
12969;BME280;6549;53.128;8.182;2022-08-19T09:09:39;101193.09;;;23.78;100.00
12969;BME280;6549;53.128;8.182;2022-08-19T09:16:16;101193.16;;;24.83;100.00
12969;BME280;6549;53.128;8.182;2022-08-19T09:19:20;101183.69;;;25.46;100.00
12969;BME280;6549;53.128;8.182;2022-08-19T09:22:21;101183.34;;;25.77;100.00
12969;BME280;6549;53.128;8.182;2022-08-19T09:25:22;101177.53;;;26.19;98.41
12969;BME280;6549;53.128;8.182;2022-08-19T09:28:23;101177.97;;;26.27;90.00
12969;BME280;6549;53.128;8.182;2022-08-19T09:31:26;101181.91;;;26.20;82.17
12969;BME280;6549;53.128;8.182;2022-08-19T09:34:26;101181.91;;;25.82;93.79
12969;BME280;6549;53.128;8.182;2022-08-19T09:37:29;101174.34;;;25.88;88.86
12969;BME280;6549;53.128;8.182;2022-08-19T09:40:30;101176.88;;;25.86;89.09
12969;BME280;6549;53.128;8.182;2022-08-19T09:43:32;101179.28;;;25.78;85.68
12969;BME280;6549;53.128;8.182;2022-08-19T09:46:33;101180.00;;;25.64;91.62
12969;BME280;6549;53.128;8.182;2022-08-19T09:49:34;101177.91;;;26.12;92.37
12969;BME280;6549;53.128;8.182;2022-08-19T09:52:34;101171.13;;;26.19;81.03
12969;BME280;6549;53.128;8.182;2022-08-19T09:55:42;101172.41;;;25.94;82.43
12969;BME280;6549;53.128;8.182;2022-08-19T09:58:42;101172.59;;;25.90;82.54
12969;BME280;6549;53.128;8.182;2022-08-19T10:01:43;101177.00;;;25.68;80.32
12969;BME280;6549;53.128;8.182;2022-08-19T10:04:43;101173.72;;;26.08;80.05
12969;BME280;6549;53.128;8.182;2022-08-19T10:08:02;101169.59;;;26.47;73.21
12969;BME280;6549;53.128;8.182;2022-08-19T10:11:03;101173.31;;;26.68;64.76
12969;BME280;6549;53.128;8.182;2022-08-19T10:14:04;101169.59;;;26.91;67.08
12969;BME280;6549;53.128;8.182;2022-08-19T10:17:08;101174.66;;;26.87;64.10
12969;BME280;6549;53.128;8.182;2022-08-19T10:20:08;101169.03;;;26.58;62.88
12969;BME280;6549;53.128;8.182;2022-08-19T10:23:09;101155.84;;;27.13;66.58
12969;BME280;6549;53.128;8.182;2022-08-19T10:26:09;101151.94;;;27.46;59.76
12969;BME280;6549;53.128;8.182;2022-08-19T10:29:10;101158.19;;;27.70;57.55
12969;BME280;6549;53.128;8.182;2022-08-19T10:32:11;101163.09;;;27.35;55.97
12969;BME280;6549;53.128;8.182;2022-08-19T10:35:13;101171.16;;;27.62;56.91
12969;BME280;6549;53.128;8.182;2022-08-19T10:38:13;101157.25;;;27.79;57.04
12969;BME280;6549;53.128;8.182;2022-08-19T10:41:19;101161.41;;;27.63;49.96
12969;BME280;6549;53.128;8.182;2022-08-19T10:44:20;101154.06;;;27.71;50.66
12969;BME280;6549;53.128;8.182;2022-08-19T10:47:21;101145.03;;;27.87;50.53
12969;BME280;6549;53.128;8.182;2022-08-19T10:50:22;101144.25;;;28.33;46.65
12969;BME280;6549;53.128;8.182;2022-08-19T10:53:41;101142.91;;;28.54;49.97
12969;BME280;6549;53.128;8.182;2022-08-19T10:56:41;101136.81;;;28.09;47.76
12969;BME280;6549;53.128;8.182;2022-08-19T10:59:51;101139.84;;;28.06;48.63
12969;BME280;6549;53.128;8.182;2022-08-19T11:02:51;101133.50;;;28.37;49.25
12969;BME280;6549;53.128;8.182;2022-08-19T11:06:04;101145.00;;;28.90;48.50
12969;BME280;6549;53.128;8.182;2022-08-19T11:09:05;101141.16;;;28.31;45.96
12969;BME280;6549;53.128;8.182;2022-08-19T11:12:06;101147.72;;;28.48;48.52
12969;BME280;6549;53.128;8.182;2022-08-19T11:15:09;101143.22;;;28.62;48.14
12969;BME280;6549;53.128;8.182;2022-08-19T11:18:11;101142.09;;;28.48;48.59
12969;BME280;6549;53.128;8.182;2022-08-19T11:21:16;101149.22;;;28.43;47.20
12969;BME280;6549;53.128;8.182;2022-08-19T11:24:21;101143.66;;;28.80;49.22
12969;BME280;6549;53.128;8.182;2022-08-19T11:27:21;101151.16;;;29.26;46.58
12969;BME280;6549;53.128;8.182;2022-08-19T11:30:22;101144.41;;;29.18;46.55
12969;BME280;6549;53.128;8.182;2022-08-19T11:33:22;101145.09;;;29.44;45.67
12969;BME280;6549;53.128;8.182;2022-08-19T11:36:23;101143.16;;;29.67;44.56
12969;BME280;6549;53.128;8.182;2022-08-19T11:39:23;101133.38;;;29.68;43.84
12969;BME280;6549;53.128;8.182;2022-08-19T11:42:24;101131.59;;;29.76;44.28
12969;BME280;6549;53.128;8.182;2022-08-19T11:45:43;101139.53;;;29.66;42.46
12969;BME280;6549;53.128;8.182;2022-08-19T11:48:44;101138.94;;;29.03;43.26
12969;BME280;6549;53.128;8.182;2022-08-19T11:51:45;101141.16;;;29.30;44.34
12969;BME280;6549;53.128;8.182;2022-08-19T11:54:45;101139.97;;;29.48;44.54
12969;BME280;6549;53.128;8.182;2022-08-19T11:57:46;101134.09;;;29.57;45.18
12969;BME280;6549;53.128;8.182;2022-08-19T12:00:46;101136.69;;;29.66;45.10
12969;BME280;6549;53.128;8.182;2022-08-19T12:03:49;101138.47;;;29.58;43.45
12969;BME280;6549;53.128;8.182;2022-08-19T12:06:49;101142.41;;;29.83;43.59
12969;BME280;6549;53.128;8.182;2022-08-19T12:09:50;101138.91;;;29.99;43.02
12969;BME280;6549;53.128;8.182;2022-08-19T12:12:51;101142.94;;;29.81;40.60
12969;BME280;6549;53.128;8.182;2022-08-19T12:15:51;101143.78;;;29.99;41.31
12969;BME280;6549;53.128;8.182;2022-08-19T12:18:53;101145.94;;;30.31;39.84
12969;BME280;6549;53.128;8.182;2022-08-19T12:21:58;101135.72;;;29.27;40.60
12969;BME280;6549;53.128;8.182;2022-08-19T12:25:00;101131.88;;;29.78;42.96
12969;BME280;6549;53.128;8.182;2022-08-19T12:28:02;101124.72;;;29.94;41.00
12969;BME280;6549;53.128;8.182;2022-08-19T12:31:03;101116.53;;;30.23;42.51
12969;BME280;6549;53.128;8.182;2022-08-19T12:34:03;101119.88;;;30.27;41.68
12969;BME280;6549;53.128;8.182;2022-08-19T12:37:05;101114.44;;;30.18;41.85
12969;BME280;6549;53.128;8.182;2022-08-19T12:40:05;101107.75;;;30.16;43.61
12969;BME280;6549;53.128;8.182;2022-08-19T12:43:40;101113.44;;;30.16;41.79
12969;BME280;6549;53.128;8.182;2022-08-19T12:50:40;101114.16;;;30.05;42.78
12969;BME280;6549;53.128;8.182;2022-08-19T12:53:41;101112.78;;;29.67;43.06
12969;BME280;6549;53.128;8.182;2022-08-19T12:56:42;101108.09;;;29.59;45.09
12969;BME280;6549;53.128;8.182;2022-08-19T12:59:42;101112.19;;;29.52;42.63
12969;BME280;6549;53.128;8.182;2022-08-19T13:02:44;101107.59;;;29.66;43.14
12969;BME280;6549;53.128;8.182;2022-08-19T13:05:45;101101.41;;;29.56;43.77
12969;BME280;6549;53.128;8.182;2022-08-19T13:08:46;101112.75;;;29.56;42.22
12969;BME280;6549;53.128;8.182;2022-08-19T13:11:46;101105.31;;;29.75;41.27
12969;BME280;6549;53.128;8.182;2022-08-19T13:14:46;101104.03;;;29.76;41.10
12969;BME280;6549;53.128;8.182;2022-08-19T13:17:52;101108.94;;;29.76;41.47
12969;BME280;6549;53.128;8.182;2022-08-19T13:20:52;101101.16;;;29.65;40.71
12969;BME280;6549;53.128;8.182;2022-08-19T13:23:53;101106.00;;;29.42;41.83
12969;BME280;6549;53.128;8.182;2022-08-19T13:26:54;101104.69;;;29.43;42.86
12969;BME280;6549;53.128;8.182;2022-08-19T15:45:41;101062.13;;;27.90;47.29
12969;BME280;6549;53.128;8.182;2022-08-19T15:48:41;101059.38;;;27.96;48.04
12969;BME280;6549;53.128;8.182;2022-08-19T15:51:44;101067.84;;;27.70;48.60
12969;BME280;6549;53.128;8.182;2022-08-19T15:54:45;101060.81;;;27.86;49.24
12969;BME280;6549;53.128;8.182;2022-08-19T15:57:45;101063.53;;;28.00;47.82
12969;BME280;6549;53.128;8.182;2022-08-19T16:01:06;101072.81;;;27.81;48.00
12969;BME280;6549;53.128;8.182;2022-08-19T16:04:25;101071.28;;;27.19;48.83
12969;BME280;6549;53.128;8.182;2022-08-19T16:07:44;101070.72;;;27.15;50.20
12969;BME280;6549;53.128;8.182;2022-08-19T16:10:44;101078.47;;;27.20;50.88
12969;BME280;6549;53.128;8.182;2022-08-19T16:13:48;101070.94;;;27.32;50.21
12969;BME280;6549;53.128;8.182;2022-08-19T16:16:50;101070.16;;;27.31;50.06
12969;BME280;6549;53.128;8.182;2022-08-19T16:19:51;101065.06;;;27.35;50.31
12969;BME280;6549;53.128;8.182;2022-08-19T16:22:51;101062.63;;;27.43;51.06
12969;BME280;6549;53.128;8.182;2022-08-19T16:25:51;101064.75;;;27.48;51.66
12969;BME280;6549;53.128;8.182;2022-08-19T16:28:52;101070.56;;;27.44;51.68
12969;BME280;6549;53.128;8.182;2022-08-19T16:31:53;101066.69;;;27.42;51.96
12969;BME280;6549;53.128;8.182;2022-08-19T16:34:54;101060.34;;;27.26;51.73
12969;BME280;6549;53.128;8.182;2022-08-19T16:37:55;101066.63;;;27.16;52.14
12969;BME280;6549;53.128;8.182;2022-08-19T16:40:55;101066.13;;;26.97;52.23
12969;BME280;6549;53.128;8.182;2022-08-19T16:43:56;101064.22;;;26.74;50.92
12969;BME280;6549;53.128;8.182;2022-08-19T16:46:57;101076.13;;;26.49;49.62
12969;BME280;6549;53.128;8.182;2022-08-19T16:49:57;101076.59;;;26.03;51.41
12969;BME280;6549;53.128;8.182;2022-08-19T16:52:59;101068.94;;;25.89;52.37
12969;BME280;6549;53.128;8.182;2022-08-19T16:55:59;101063.47;;;25.71;52.76
12969;BME280;6549;53.128;8.182;2022-08-19T16:59:00;101062.19;;;25.57;54.16
12969;BME280;6549;53.128;8.182;2022-08-19T17:02:01;101064.56;;;25.26;54.46
12969;BME280;6549;53.128;8.182;2022-08-19T17:05:01;101058.75;;;25.29;55.29
12969;BME280;6549;53.128;8.182;2022-08-19T17:08:02;101057.31;;;25.10;56.31
12969;BME280;6549;53.128;8.182;2022-08-19T17:11:02;101058.06;;;24.96;57.26
12969;BME280;6549;53.128;8.182;2022-08-19T17:14:04;101055.78;;;24.76;56.59
12969;BME280;6549;53.128;8.182;2022-08-19T17:17:05;101063.56;;;24.48;58.55
12969;BME280;6549;53.128;8.182;2022-08-19T17:20:06;101065.56;;;24.48;59.07
12969;BME280;6549;53.128;8.182;2022-08-19T17:23:08;101071.19;;;24.48;59.28
12969;BME280;6549;53.128;8.182;2022-08-19T17:26:12;101067.31;;;24.45;59.69
12969;BME280;6549;53.128;8.182;2022-08-19T17:29:13;101068.31;;;24.33;60.38
12969;BME280;6549;53.128;8.182;2022-08-19T17:32:13;101069.75;;;24.20;61.95
12969;BME280;6549;53.128;8.182;2022-08-19T17:35:15;101062.69;;;24.15;62.29
12969;BME280;6549;53.128;8.182;2022-08-19T17:38:21;101069.91;;;24.16;63.61
12969;BME280;6549;53.128;8.182;2022-08-19T17:41:22;101068.34;;;24.06;64.56
12969;BME280;6549;53.128;8.182;2022-08-19T17:44:23;101069.72;;;24.10;64.55
12969;BME280;6549;53.128;8.182;2022-08-19T17:47:25;101061.47;;;24.07;64.10
12969;BME280;6549;53.128;8.182;2022-08-19T17:50:26;101068.50;;;24.11;64.79
12969;BME280;6549;53.128;8.182;2022-08-19T17:53:26;101067.88;;;24.07;64.80
12969;BME280;6549;53.128;8.182;2022-08-19T17:56:27;101060.06;;;24.11;65.19
12969;BME280;6549;53.128;8.182;2022-08-19T17:59:30;101061.16;;;24.05;65.94
12969;BME280;6549;53.128;8.182;2022-08-19T18:02:30;101060.88;;;24.03;65.91
12969;BME280;6549;53.128;8.182;2022-08-19T18:05:34;101070.81;;;24.04;65.35
12969;BME280;6549;53.128;8.182;2022-08-19T18:08:36;101070.81;;;24.04;65.88
12969;BME280;6549;53.128;8.182;2022-08-19T18:11:38;101063.19;;;24.04;66.68
12969;BME280;6549;53.128;8.182;2022-08-19T18:14:39;101063.53;;;23.88;73.93
12969;BME280;6549;53.128;8.182;2022-08-19T18:17:40;101059.34;;;23.75;72.70
12969;BME280;6549;53.128;8.182;2022-08-19T18:20:40;101067.59;;;23.78;72.93
12969;BME280;6549;53.128;8.182;2022-08-19T18:23:41;101064.63;;;23.82;72.45
12969;BME280;6549;53.128;8.182;2022-08-19T18:26:42;101076.78;;;23.79;72.71
12969;BME280;6549;53.128;8.182;2022-08-19T18:29:43;101074.44;;;23.77;72.68
12969;BME280;6549;53.128;8.182;2022-08-19T18:32:43;101079.59;;;23.69;82.03
12969;BME280;6549;53.128;8.182;2022-08-19T18:35:47;101077.75;;;23.66;86.35
12969;BME280;6549;53.128;8.182;2022-08-19T18:38:47;101071.50;;;23.62;90.31
12969;BME280;6549;53.128;8.182;2022-08-19T18:42:12;101074.59;;;23.55;100.00
12969;BME280;6549;53.128;8.182;2022-08-19T18:45:31;101076.13;;;23.38;100.00
12969;BME280;6549;53.128;8.182;2022-08-19T18:48:50;101079.84;;;23.26;100.00
12969;BME280;6549;53.128;8.182;2022-08-19T18:52:04;101079.38;;;23.18;100.00
12969;BME280;6549;53.128;8.182;2022-08-19T18:55:06;101085.13;;;23.15;100.00
12969;BME280;6549;53.128;8.182;2022-08-19T18:58:06;101087.00;;;23.09;100.00
12969;BME280;6549;53.128;8.182;2022-08-19T19:01:15;101089.16;;;23.05;100.00
12969;BME280;6549;53.128;8.182;2022-08-19T19:04:19;101083.22;;;23.03;100.00
12969;BME280;6549;53.128;8.182;2022-08-19T19:07:19;101082.28;;;22.97;100.00
12969;BME280;6549;53.128;8.182;2022-08-19T19:10:20;101089.91;;;22.87;100.00
12969;BME280;6549;53.128;8.182;2022-08-19T19:13:20;101082.34;;;22.75;100.00
12969;BME280;6549;53.128;8.182;2022-08-19T19:16:20;101079.19;;;22.64;100.00
12969;BME280;6549;53.128;8.182;2022-08-19T19:19:21;101086.63;;;22.58;100.00
12969;BME280;6549;53.128;8.182;2022-08-19T19:22:23;101092.38;;;22.54;100.00
12969;BME280;6549;53.128;8.182;2022-08-19T19:25:23;101092.81;;;22.53;100.00
12969;BME280;6549;53.128;8.182;2022-08-19T19:28:24;101106.31;;;22.45;100.00
12969;BME280;6549;53.128;8.182;2022-08-19T19:31:27;101107.38;;;22.38;100.00
12969;BME280;6549;53.128;8.182;2022-08-19T19:34:28;101106.09;;;22.30;100.00
12969;BME280;6549;53.128;8.182;2022-08-19T19:37:28;101106.50;;;22.20;100.00
12969;BME280;6549;53.128;8.182;2022-08-19T19:40:28;101095.03;;;22.05;100.00
12969;BME280;6549;53.128;8.182;2022-08-19T19:43:29;101094.38;;;22.01;100.00
12969;BME280;6549;53.128;8.182;2022-08-19T19:46:31;101101.13;;;21.91;100.00
12969;BME280;6549;53.128;8.182;2022-08-19T19:49:31;101096.94;;;21.74;100.00
12969;BME280;6549;53.128;8.182;2022-08-19T19:52:32;101100.22;;;21.72;100.00
12969;BME280;6549;53.128;8.182;2022-08-19T19:55:32;101108.25;;;21.70;100.00
12969;BME280;6549;53.128;8.182;2022-08-19T19:58:33;101102.94;;;21.63;100.00
12969;BME280;6549;53.128;8.182;2022-08-19T20:01:36;101111.09;;;21.58;100.00
12969;BME280;6549;53.128;8.182;2022-08-19T20:04:36;101104.06;;;21.53;100.00
12969;BME280;6549;53.128;8.182;2022-08-19T20:07:38;101107.44;;;21.48;100.00
12969;BME280;6549;53.128;8.182;2022-08-19T20:11:00;101110.38;;;21.44;100.00
12969;BME280;6549;53.128;8.182;2022-08-19T20:14:04;101116.66;;;21.36;100.00
12969;BME280;6549;53.128;8.182;2022-08-19T20:17:05;101109.41;;;21.26;100.00
12969;BME280;6549;53.128;8.182;2022-08-19T20:20:10;101109.66;;;21.19;100.00
12969;BME280;6549;53.128;8.182;2022-08-19T20:23:11;101109.44;;;21.13;100.00
12969;BME280;6549;53.128;8.182;2022-08-19T20:26:12;101106.19;;;21.15;100.00
12969;BME280;6549;53.128;8.182;2022-08-19T20:29:14;101121.00;;;21.12;100.00
12969;BME280;6549;53.128;8.182;2022-08-19T20:32:15;101120.03;;;21.05;100.00
12969;BME280;6549;53.128;8.182;2022-08-19T20:35:17;101115.56;;;20.95;100.00
12969;BME280;6549;53.128;8.182;2022-08-19T20:38:18;101119.38;;;20.89;100.00
12969;BME280;6549;53.128;8.182;2022-08-19T20:41:18;101123.84;;;20.86;100.00
12969;BME280;6549;53.128;8.182;2022-08-19T20:44:19;101127.84;;;20.85;100.00
12969;BME280;6549;53.128;8.182;2022-08-19T20:47:20;101128.97;;;20.75;100.00
12969;BME280;6549;53.128;8.182;2022-08-19T20:50:20;101129.31;;;20.65;100.00
12969;BME280;6549;53.128;8.182;2022-08-19T20:53:21;101145.50;;;20.57;100.00
12969;BME280;6549;53.128;8.182;2022-08-19T20:56:22;101146.72;;;20.56;100.00
12969;BME280;6549;53.128;8.182;2022-08-19T20:59:23;101154.53;;;20.48;100.00
12969;BME280;6549;53.128;8.182;2022-08-19T21:02:25;101159.75;;;20.46;100.00
12969;BME280;6549;53.128;8.182;2022-08-19T21:05:25;101161.63;;;20.37;100.00
12969;BME280;6549;53.128;8.182;2022-08-19T21:08:26;101163.25;;;20.22;100.00
12969;BME280;6549;53.128;8.182;2022-08-19T21:11:26;101167.84;;;20.28;100.00
12969;BME280;6549;53.128;8.182;2022-08-19T21:14:27;101175.09;;;20.26;100.00
12969;BME280;6549;53.128;8.182;2022-08-19T21:17:27;101180.53;;;20.16;100.00
12969;BME280;6549;53.128;8.182;2022-08-19T21:20:27;101171.25;;;20.19;100.00
12969;BME280;6549;53.128;8.182;2022-08-19T21:23:28;101177.09;;;20.25;100.00
12969;BME280;6549;53.128;8.182;2022-08-19T21:26:29;101187.03;;;20.26;100.00
12969;BME280;6549;53.128;8.182;2022-08-19T21:29:29;101179.88;;;20.25;100.00
12969;BME280;6549;53.128;8.182;2022-08-19T21:32:31;101181.88;;;20.25;100.00
12969;BME280;6549;53.128;8.182;2022-08-19T21:35:31;101188.59;;;20.27;100.00
12969;BME280;6549;53.128;8.182;2022-08-19T21:38:32;101187.47;;;20.25;100.00
12969;BME280;6549;53.128;8.182;2022-08-19T21:41:32;101184.00;;;20.21;100.00
12969;BME280;6549;53.128;8.182;2022-08-19T21:44:33;101196.38;;;20.19;100.00
12969;BME280;6549;53.128;8.182;2022-08-19T21:47:34;101196.38;;;20.19;100.00
12969;BME280;6549;53.128;8.182;2022-08-19T21:50:34;101188.25;;;20.25;100.00
12969;BME280;6549;53.128;8.182;2022-08-19T21:53:35;101188.59;;;20.27;100.00
12969;BME280;6549;53.128;8.182;2022-08-19T21:56:36;101188.59;;;20.27;100.00
12969;BME280;6549;53.128;8.182;2022-08-19T21:59:38;101179.53;;;20.23;100.00
12969;BME280;6549;53.128;8.182;2022-08-19T22:02:38;101184.78;;;20.21;100.00
12969;BME280;6549;53.128;8.182;2022-08-19T22:05:39;101187.69;;;20.17;100.00
12969;BME280;6549;53.128;8.182;2022-08-19T22:08:39;101182.00;;;20.21;100.00
12969;BME280;6549;53.128;8.182;2022-08-19T22:11:41;101190.25;;;20.25;100.00
12969;BME280;6549;53.128;8.182;2022-08-19T22:14:42;101191.03;;;20.25;100.00
12969;BME280;6549;53.128;8.182;2022-08-19T22:17:42;101188.25;;;20.25;100.00
12969;BME280;6549;53.128;8.182;2022-08-19T22:20:44;101189.47;;;20.24;100.00
12969;BME280;6549;53.128;8.182;2022-08-19T22:23:45;101190.16;;;20.28;100.00
12969;BME280;6549;53.128;8.182;2022-08-19T22:26:45;101187.03;;;20.26;100.00
12969;BME280;6549;53.128;8.182;2022-08-19T22:29:46;101188.25;;;20.25;100.00
12969;BME280;6549;53.128;8.182;2022-08-19T22:32:49;101184.69;;;20.25;100.00
12969;BME280;6549;53.128;8.182;2022-08-19T22:35:51;101186.34;;;20.22;100.00
12969;BME280;6549;53.128;8.182;2022-08-19T22:38:51;101187.13;;;20.23;100.00
12969;BME280;6549;53.128;8.182;2022-08-19T22:41:53;101190.16;;;20.28;100.00
12969;BME280;6549;53.128;8.182;2022-08-19T22:44:56;101202.03;;;20.32;100.00
12969;BME280;6549;53.128;8.182;2022-08-19T22:47:58;101198.13;;;20.30;100.00
12969;BME280;6549;53.128;8.182;2022-08-19T22:50:59;101204.06;;;20.15;100.00
12969;BME280;6549;53.128;8.182;2022-08-19T22:54:18;101205.81;;;20.09;100.00
12969;BME280;6549;53.128;8.182;2022-08-19T22:57:20;101210.03;;;20.01;100.00
12969;BME280;6549;53.128;8.182;2022-08-19T23:00:22;101204.28;;;19.92;100.00
12969;BME280;6549;53.128;8.182;2022-08-19T23:03:23;101207.38;;;19.82;100.00
12969;BME280;6549;53.128;8.182;2022-08-19T23:06:23;101205.09;;;19.77;100.00
12969;BME280;6549;53.128;8.182;2022-08-19T23:09:24;101205.72;;;19.68;100.00
12969;BME280;6549;53.128;8.182;2022-08-19T23:12:28;101205.22;;;19.73;100.00
12969;BME280;6549;53.128;8.182;2022-08-19T23:15:30;101208.91;;;19.83;100.00
12969;BME280;6549;53.128;8.182;2022-08-19T23:18:32;101199.78;;;19.82;100.00
12969;BME280;6549;53.128;8.182;2022-08-19T23:21:33;101201.53;;;19.76;100.00
12969;BME280;6549;53.128;8.182;2022-08-19T23:24:35;101202.94;;;19.68;100.00
12969;BME280;6549;53.128;8.182;2022-08-19T23:27:35;101209.31;;;19.68;100.00
12969;BME280;6549;53.128;8.182;2022-08-19T23:30:54;101216.44;;;19.69;100.00
12969;BME280;6549;53.128;8.182;2022-08-19T23:33:56;101209.22;;;19.72;100.00
12969;BME280;6549;53.128;8.182;2022-08-19T23:36:56;101213.56;;;19.73;100.00
12969;BME280;6549;53.128;8.182;2022-08-19T23:39:56;101216.44;;;19.69;100.00
12969;BME280;6549;53.128;8.182;2022-08-19T23:42:57;101213.72;;;19.66;100.00
12969;BME280;6549;53.128;8.182;2022-08-19T23:45:59;101222.97;;;19.63;100.00
12969;BME280;6549;53.128;8.182;2022-08-19T23:49:00;101216.34;;;19.57;100.00
12969;BME280;6549;53.128;8.182;2022-08-19T23:52:00;101213.75;;;19.50;100.00
12969;BME280;6549;53.128;8.182;2022-08-19T23:55:03;101212.00;;;19.56;100.00
12969;BME280;6549;53.128;8.182;2022-08-19T23:58:05;101211.66;;;19.54;100.00
